Time;durP1;ratioP1;P1;durP2;ratioP2;P2;SDS_P1;SDS_P2;PMS_P1;PMS_P2;Temp;Humidity;BMP_temperature;BMP_pressure;BME280_temperature;BME280_humidity;BME280_pressure;Samples;Min_cycle;Max_cycle;Signal;HPM_P1;HPM_P2
2023/02/10 00:01:07;;;;;;;37.53;19.75;;;-4.80;99.90;;;;;;5052793;28;20021;-78
2023/02/10 00:03:33;;;;;;;38.13;19.00;;;-4.80;99.90;;;;;;5052881;28;20043;-78
2023/02/10 00:05:59;;;;;;;44.05;19.85;;;-4.90;99.90;;;;;;5052885;28;20107;-79
2023/02/10 00:08:25;;;;;;;39.95;18.48;;;-4.90;99.90;;;;;;5052702;28;20485;-79
2023/02/10 00:10:51;;;;;;;35.95;17.38;;;-4.90;99.90;;;;;;5054262;28;20025;-79
2023/02/10 00:13:17;;;;;;;40.33;19.10;;;-4.90;99.90;;;;;;5053973;28;20729;-79
2023/02/10 00:15:43;;;;;;;38.72;18.58;;;-5.00;99.90;;;;;;5054031;28;20025;-80
2023/02/10 00:18:09;;;;;;;39.45;18.35;;;-5.00;99.90;;;;;;5053111;28;20040;-79
2023/02/10 00:20:35;;;;;;;39.78;18.75;;;-5.00;99.90;;;;;;5055169;28;20048;-79
2023/02/10 00:23:01;;;;;;;37.83;18.55;;;-5.00;99.90;;;;;;5054170;28;20547;-79
2023/02/10 00:25:26;;;;;;;36.40;17.48;;;-5.10;99.90;;;;;;5054104;28;20120;-79
2023/02/10 00:27:52;;;;;;;38.63;18.05;;;-5.10;99.90;;;;;;5050425;28;20076;-80
2023/02/10 00:30:18;;;;;;;36.60;17.45;;;-5.10;99.90;;;;;;5034591;28;20051;-79
2023/02/10 00:32:43;;;;;;;38.60;18.13;;;-5.20;99.90;;;;;;5035614;28;20103;-79
2023/02/10 00:35:10;;;;;;;37.50;18.10;;;-5.10;99.90;;;;;;5052796;28;20067;-78
2023/02/10 00:37:37;;;;;;;40.95;19.00;;;-5.20;99.90;;;;;;5052797;28;20386;-79
2023/02/10 00:40:03;;;;;;;37.10;18.50;;;-5.20;99.90;;;;;;5036827;28;20026;-79
2023/02/10 00:42:29;;;;;;;39.83;18.20;;;-5.30;99.90;;;;;;5049330;28;20026;-80
2023/02/10 00:44:55;;;;;;;37.80;17.15;;;-5.30;99.90;;;;;;5054692;28;20397;-80
2023/02/10 00:47:23;;;;;;;45.20;19.52;;;-5.30;99.90;;;;;;5055481;28;20035;-77
2023/02/10 00:49:49;;;;;;;39.65;17.48;;;-5.30;99.90;;;;;;5059095;28;20032;-76
2023/02/10 00:52:15;;;;;;;36.92;17.52;;;-5.30;99.90;;;;;;5055881;28;20053;-78
2023/02/10 00:54:42;;;;;;;38.47;18.05;;;-5.40;99.90;;;;;;5052977;28;20481;-79
2023/02/10 00:57:08;;;;;;;37.95;18.77;;;-5.40;99.90;;;;;;5055045;28;20029;-79
2023/02/10 00:59:34;;;;;;;30.38;16.20;;;-5.40;99.90;;;;;;5055087;28;20025;-78
2023/02/10 01:02:01;;;;;;;35.33;17.67;;;-5.40;99.90;;;;;;5038563;28;20044;-78
2023/02/10 01:04:26;;;;;;;36.80;17.00;;;-5.40;99.90;;;;;;5055571;28;20112;-80
2023/02/10 01:06:54;;;;;;;39.92;18.40;;;-5.40;99.90;;;;;;5055990;28;20033;-80
2023/02/10 01:09:19;;;;;;;36.95;17.58;;;-5.40;99.90;;;;;;5053567;28;20055;-77
2023/02/10 01:11:47;;;;;;;35.03;16.38;;;-5.40;99.90;;;;;;5017743;28;20045;-78
2023/02/10 01:14:14;;;;;;;35.53;15.93;;;-5.40;99.90;;;;;;5052191;28;20028;-78
2023/02/10 01:16:39;;;;;;;39.97;17.30;;;-5.40;99.90;;;;;;5054920;28;20515;-78
2023/02/10 01:19:08;;;;;;;40.22;17.15;;;-5.40;99.90;;;;;;5035890;28;20185;-78
2023/02/10 01:21:36;;;;;;;37.20;16.83;;;-5.40;99.90;;;;;;5052166;28;20057;-79
2023/02/10 01:24:05;;;;;;;34.10;16.10;;;-5.40;99.90;;;;;;5053287;28;20039;-78
2023/02/10 01:26:32;;;;;;;33.30;15.77;;;-5.50;99.90;;;;;;5056077;28;20090;-79
2023/02/10 01:28:58;;;;;;;32.83;15.20;;;-5.50;99.90;;;;;;5052473;28;20025;-78
2023/02/10 01:31:24;;;;;;;33.70;17.00;;;-5.40;99.90;;;;;;5034066;28;20429;-78
2023/02/10 01:33:52;;;;;;;35.47;16.05;;;-5.30;99.90;;;;;;5055210;28;20043;-80
2023/02/10 01:36:19;;;;;;;36.13;16.33;;;-5.30;99.90;;;;;;5042973;28;20029;-79
2023/02/10 01:38:45;;;;;;;37.08;16.35;;;-5.40;99.90;;;;;;5046638;28;20013;-78
2023/02/10 01:41:13;;;;;;;34.60;15.57;;;-5.50;99.90;;;;;;5046905;28;20044;-79
2023/02/10 01:44:06;;;;;;;34.03;16.00;;;-5.60;99.90;;;;;;5046619;28;20028;-79
2023/02/10 01:46:35;;;;;;;34.38;16.70;;;-5.60;99.90;;;;;;5051641;28;20025;-79
2023/02/10 01:49:09;;;;;;;35.97;16.10;;;-5.60;99.90;;;;;;5058788;28;20029;-79
2023/02/10 01:51:45;;;;;;;35.28;16.17;;;-5.60;99.90;;;;;;5050310;28;20025;-80
2023/02/10 01:54:16;;;;;;;34.30;16.40;;;-5.60;99.90;;;;;;5050445;28;20052;-80
2023/02/10 01:56:42;;;;;;;38.85;17.50;;;-5.70;99.90;;;;;;5052164;28;20102;-80
2023/02/10 01:59:08;;;;;;;35.65;17.25;;;-5.70;99.90;;;;;;5048950;28;20091;-80
2023/02/10 02:01:35;;;;;;;33.40;15.98;;;-5.70;99.90;;;;;;5049901;28;20043;-80
2023/02/10 02:04:02;;;;;;;38.00;17.63;;;-5.70;99.90;;;;;;5050742;28;20444;-80
2023/02/10 02:06:28;;;;;;;34.67;16.67;;;-5.70;99.90;;;;;;5053151;28;20032;-78
2023/02/10 02:08:54;;;;;;;33.33;16.58;;;-5.70;99.90;;;;;;5055912;28;20058;-79
2023/02/10 02:11:41;;;;;;;38.05;16.92;;;-5.70;99.90;;;;;;5053587;28;20305;-79
2023/02/10 02:14:18;;;;;;;35.38;16.08;;;-5.70;99.90;;;;;;5070219;28;20029;-79
2023/02/10 02:16:59;;;;;;;37.22;16.92;;;-5.70;99.90;;;;;;5051798;28;20036;-79
2023/02/10 02:20:40;;;;;;;35.28;16.23;;;-5.70;99.90;;;;;;5034237;28;20100;-80
2023/02/10 02:22:45;;;;;;;39.63;18.40;;;-5.70;99.90;;;;;;5053947;28;20028;-79
2023/02/10 02:25:14;;;;;;;36.25;16.73;;;-5.70;99.90;;;;;;5052318;28;20056;-79
2023/02/10 02:27:58;;;;;;;39.30;18.10;;;-5.70;99.90;;;;;;5052355;28;20029;-78
2023/02/10 02:30:34;;;;;;;35.60;18.70;;;-5.80;99.90;;;;;;5048202;28;20021;-80
2023/02/10 02:33:08;;;;;;;43.90;18.55;;;-5.70;99.90;;;;;;5050578;28;20039;-79
2023/02/10 02:35:42;;;;;;;37.97;17.55;;;-5.80;99.90;;;;;;5053023;28;20083;-79
2023/02/10 02:38:08;;;;;;;39.72;17.20;;;-5.80;99.90;;;;;;5049647;28;20021;-80
2023/02/10 02:40:34;;;;;;;41.92;18.55;;;-5.70;99.90;;;;;;5052388;28;20074;-80
2023/02/10 02:43:00;;;;;;;36.75;16.88;;;-5.70;99.90;;;;;;5050109;28;20018;-79
2023/02/10 02:45:35;;;;;;;39.83;18.23;;;-5.70;99.90;;;;;;5051175;28;20086;-79
2023/02/10 02:48:13;;;;;;;37.08;16.45;;;-5.80;99.90;;;;;;5048274;28;20025;-79
2023/02/10 02:50:48;;;;;;;40.35;18.67;;;-5.80;99.90;;;;;;5054485;28;20037;-80
2023/02/10 02:53:19;;;;;;;;;;;-5.80;99.90;;;;;;5052616;28;20108;-80
2023/02/10 02:55:48;;;;;;;40.03;17.52;;;-5.80;99.90;;;;;;5056329;28;19913;-79
2023/02/10 02:58:17;;;;;;;43.00;18.92;;;-5.80;99.90;;;;;;5038895;28;20028;-78
2023/02/10 03:00:45;;;;;;;40.75;17.58;;;-5.80;99.90;;;;;;5054968;28;20512;-80
2023/02/10 03:03:11;;;;;;;38.92;17.92;;;-5.80;99.90;;;;;;5052765;28;20069;-79
2023/02/10 03:05:37;;;;;;;39.10;18.00;;;-5.90;99.90;;;;;;5056408;28;20074;-79
2023/02/10 03:08:03;;;;;;;39.20;17.98;;;-5.90;99.90;;;;;;5037649;28;20037;-79
2023/02/10 03:10:29;;;;;;;37.45;17.33;;;-5.90;99.90;;;;;;5053047;28;20060;-79
2023/02/10 03:12:55;;;;;;;37.72;17.08;;;-5.90;99.90;;;;;;5054845;28;20033;-78
2023/02/10 03:15:21;;;;;;;38.85;17.42;;;-6.00;99.90;;;;;;5052116;28;20041;-79
2023/02/10 03:17:47;;;;;;;32.53;16.10;;;-6.00;99.90;;;;;;5053343;28;20500;-79
2023/02/10 03:20:13;;;;;;;37.47;17.38;;;-6.00;99.90;;;;;;5055997;28;20029;-79
2023/02/10 03:22:40;;;;;;;35.95;16.65;;;-6.10;99.90;;;;;;5054424;28;20087;-78
2023/02/10 03:25:06;;;;;;;41.08;17.52;;;-6.10;99.90;;;;;;5056399;28;20033;-79
2023/02/10 03:27:31;;;;;;;38.90;17.48;;;-6.10;99.90;;;;;;5056522;28;20032;-80
2023/02/10 03:29:57;;;;;;;38.92;19.10;;;-6.20;99.90;;;;;;5053703;28;20451;-79
2023/02/10 03:32:23;;;;;;;32.35;15.95;;;-6.20;99.90;;;;;;5054138;28;20041;-78
2023/02/10 03:34:49;;;;;;;36.65;16.05;;;-6.20;99.90;;;;;;5057057;28;20044;-78
2023/02/10 03:37:15;;;;;;;34.80;16.83;;;-6.20;99.90;;;;;;5054446;28;20382;-80
2023/02/10 03:39:41;;;;;;;39.90;17.63;;;-6.20;99.90;;;;;;5054590;28;20063;-79
2023/02/10 03:42:07;;;;;;;37.67;17.73;;;-6.20;99.90;;;;;;5037743;28;20507;-80
2023/02/10 03:44:33;;;;;;;43.50;18.38;;;-6.20;99.90;;;;;;5052574;28;20083;-80
2023/02/10 03:46:58;;;;;;;44.83;19.15;;;-6.20;99.90;;;;;;5054811;28;20752;-79
2023/02/10 03:49:24;;;;;;;48.22;20.65;;;-6.20;99.90;;;;;;5036996;28;20040;-78
2023/02/10 03:51:50;;;;;;;46.55;20.10;;;-6.30;99.90;;;;;;5055903;28;20037;-79
2023/02/10 03:54:16;;;;;;;40.95;19.70;;;-6.30;99.90;;;;;;5055192;28;20477;-80
2023/02/10 03:56:42;;;;;;;41.95;19.45;;;-6.40;99.90;;;;;;5055447;28;20106;-79
2023/02/10 03:59:08;;;;;;;42.83;19.27;;;-6.30;99.90;;;;;;5054425;28;20170;-78
2023/02/10 04:01:33;;;;;;;44.20;19.67;;;-6.20;99.90;;;;;;5054119;28;20017;-78
2023/02/10 04:04:00;;;;;;;40.92;18.55;;;-6.20;99.90;;;;;;5053220;28;20032;-80
2023/02/10 04:06:26;;;;;;;43.20;19.65;;;-6.20;99.90;;;;;;5054875;28;20098;-78
2023/02/10 04:08:52;;;;;;;42.85;19.58;;;-6.20;99.90;;;;;;5055434;28;20116;-76
2023/02/10 04:11:19;;;;;;;44.15;19.42;;;-6.30;99.90;;;;;;5055467;28;20075;-78
2023/02/10 04:13:45;;;;;;;45.58;20.98;;;-6.30;99.90;;;;;;5055402;28;20021;-79
2023/02/10 04:16:14;;;;;;;48.33;21.63;;;-6.30;99.90;;;;;;5055878;28;20024;-78
2023/02/10 04:18:41;;;;;;;57.50;25.60;;;-6.30;99.90;;;;;;5037676;28;20068;-80
2023/02/10 04:21:09;;;;;;;54.90;25.20;;;-6.30;99.90;;;;;;5053912;28;20029;-79
2023/02/10 04:23:35;;;;;;;51.83;24.23;;;-6.30;99.90;;;;;;5052757;28;20108;-79
2023/02/10 04:26:02;;;;;;;45.90;21.90;;;-6.30;99.90;;;;;;5036662;28;20025;-79
2023/02/10 04:28:28;;;;;;;44.85;20.85;;;-6.40;99.90;;;;;;5054650;28;20667;-80
2023/02/10 04:30:55;;;;;;;48.55;20.55;;;-6.40;99.90;;;;;;5037799;28;20025;-78
2023/02/10 04:33:22;;;;;;;45.58;21.73;;;-6.40;99.90;;;;;;5053965;28;20080;-80
2023/02/10 04:35:48;;;;;;;47.65;21.38;;;-6.40;99.90;;;;;;5052901;28;20048;-78
2023/02/10 04:38:15;;;;;;;43.58;20.02;;;-6.40;99.90;;;;;;5053691;28;20279;-78
2023/02/10 04:40:42;;;;;;;47.63;19.80;;;-6.40;99.90;;;;;;5055035;28;20040;-78
2023/02/10 04:43:09;;;;;;;40.88;18.10;;;-6.40;99.90;;;;;;5051921;28;20057;-79
2023/02/10 04:45:35;;;;;;;38.40;18.65;;;-6.30;99.90;;;;;;5055694;28;20037;-77
2023/02/10 04:48:01;;;;;;;45.97;20.73;;;-6.30;99.90;;;;;;5052577;28;20036;-78
2023/02/10 04:50:27;;;;;;;47.00;21.40;;;-6.30;99.90;;;;;;5035520;28;20583;-79
2023/02/10 04:52:53;;;;;;;42.67;20.17;;;-6.30;99.90;;;;;;5049938;28;20032;-79
2023/02/10 04:55:19;;;;;;;47.88;22.45;;;-6.30;99.90;;;;;;5049739;28;20049;-79
2023/02/10 04:57:45;;;;;;;47.72;22.30;;;-6.20;99.90;;;;;;5052168;28;20029;-79
2023/02/10 05:00:11;;;;;;;43.10;20.65;;;-6.20;99.90;;;;;;5053216;28;20166;-78
2023/02/10 05:02:37;;;;;;;50.70;21.77;;;-6.20;99.90;;;;;;5051774;28;20059;-79
2023/02/10 05:05:03;;;;;;;47.45;21.33;;;-6.10;99.90;;;;;;5052850;28;20432;-79
2023/02/10 05:07:29;;;;;;;45.25;21.50;;;-6.20;99.90;;;;;;5047400;28;20060;-79
2023/02/10 05:09:55;;;;;;;43.65;21.00;;;-6.20;99.90;;;;;;5052947;28;20087;-78
2023/02/10 05:12:21;;;;;;;42.72;19.48;;;-6.20;99.90;;;;;;5049635;28;20033;-81
2023/02/10 05:14:46;;;;;;;41.83;20.50;;;-6.20;99.90;;;;;;5056862;28;20555;-80
2023/02/10 05:17:12;;;;;;;48.50;21.40;;;-6.20;99.90;;;;;;5053166;28;20036;-80
2023/02/10 05:19:38;;;;;;;47.53;21.48;;;-6.20;99.90;;;;;;5053510;28;20033;-80
2023/02/10 05:22:04;;;;;;;51.58;21.20;;;-6.20;99.90;;;;;;5054577;28;20059;-80
2023/02/10 05:24:29;;;;;;;45.38;20.00;;;-6.20;99.90;;;;;;5055276;28;20025;-78
2023/02/10 05:26:55;;;;;;;50.72;21.27;;;-6.10;99.90;;;;;;5053890;28;20100;-80
2023/02/10 05:29:21;;;;;;;45.25;20.73;;;-6.20;99.90;;;;;;5053536;28;20037;-79
2023/02/10 05:31:47;;;;;;;49.42;22.10;;;-6.10;99.90;;;;;;5054400;28;20393;-78
2023/02/10 05:34:12;;;;;;;44.47;20.20;;;-6.20;99.90;;;;;;5054442;28;20021;-78
2023/02/10 05:36:38;;;;;;;42.15;19.85;;;-6.10;99.90;;;;;;5052664;28;20051;-80
2023/02/10 05:39:23;;;;;;;44.78;19.88;;;-6.10;99.90;;;;;;5053638;28;20017;-79
2023/02/10 05:41:57;;;;;;;47.70;20.50;;;-6.10;99.90;;;;;;5055622;28;20100;-80
2023/02/10 05:44:25;;;;;;;46.47;21.02;;;-6.00;99.90;;;;;;5053081;28;20025;-80
2023/02/10 05:46:51;;;;;;;43.85;19.55;;;-5.90;99.90;;;;;;5054487;28;20824;-79
2023/02/10 05:49:18;;;;;;;47.65;21.10;;;-5.90;99.90;;;;;;5056891;28;20115;-80
2023/02/10 05:51:44;;;;;;;44.28;20.75;;;-5.90;99.90;;;;;;5054706;28;20561;-79
2023/02/10 05:54:10;;;;;;;50.00;23.15;;;-5.90;99.90;;;;;;5052070;28;20484;-79
2023/02/10 05:56:36;;;;;;;50.40;22.90;;;-5.90;99.90;;;;;;5054045;28;20040;-79
2023/02/10 05:59:02;;;;;;;59.20;26.95;;;-5.90;99.90;;;;;;5035796;28;20037;-80
2023/02/10 06:01:28;;;;;;;58.00;27.23;;;-5.80;99.90;;;;;;5051753;28;20048;-80
2023/02/10 06:03:54;;;;;;;57.83;26.73;;;-5.70;99.90;;;;;;5025358;28;20063;-80
2023/02/10 06:06:20;;;;;;;61.00;27.63;;;-5.70;99.90;;;;;;5050334;28;20481;-80
2023/02/10 06:08:46;;;;;;;75.80;30.65;;;-5.60;99.90;;;;;;5048822;28;20041;-79
2023/02/10 06:11:12;;;;;;;66.05;27.73;;;-5.60;99.90;;;;;;5051691;28;20033;-80
2023/02/10 06:13:38;;;;;;;59.35;25.73;;;-5.60;99.90;;;;;;5050176;28;20039;-80
2023/02/10 06:16:04;;;;;;;52.97;23.90;;;-5.40;99.90;;;;;;5051505;28;20085;-80
2023/02/10 06:18:32;;;;;;;59.10;24.33;;;-5.40;99.90;;;;;;5054189;28;20078;-78
2023/02/10 06:20:58;;;;;;;52.17;24.13;;;-5.40;99.90;;;;;;5055516;28;20033;-80
2023/02/10 06:23:24;;;;;;;53.72;25.55;;;-5.40;99.90;;;;;;5055410;28;20397;-80
2023/02/10 06:25:54;;;;;;;47.10;22.63;;;-5.40;99.90;;;;;;5055402;28;20241;-79
2023/02/10 06:28:29;;;;;;;41.72;19.33;;;-5.40;99.90;;;;;;5055317;28;20584;-80
2023/02/10 06:30:55;;;;;;;42.38;19.67;;;-5.30;99.90;;;;;;5054611;28;20032;-80
2023/02/10 06:33:21;;;;;;;45.90;19.80;;;-5.30;99.90;;;;;;5055891;28;20041;-79
2023/02/10 06:35:47;;;;;;;41.42;17.67;;;-5.30;99.90;;;;;;5050942;28;20131;-79
2023/02/10 06:38:13;;;;;;;37.25;16.80;;;-5.30;99.90;;;;;;5056152;28;20032;-80
2023/02/10 06:40:39;;;;;;;33.88;17.23;;;-5.30;99.90;;;;;;5053960;28;20052;-79
2023/02/10 06:43:04;;;;;;;35.33;16.98;;;-5.30;99.90;;;;;;5050191;28;20127;-77
2023/02/10 06:45:31;;;;;;;37.35;18.10;;;-5.40;99.90;;;;;;5054239;28;20290;-79
2023/02/10 06:47:56;;;;;;;37.63;18.55;;;-5.40;99.90;;;;;;5055708;28;20476;-78
2023/02/10 06:50:22;;;;;;;44.25;20.30;;;-5.40;99.90;;;;;;5055133;28;20076;-80
2023/02/10 06:52:48;;;;;;;39.90;19.02;;;-5.40;99.90;;;;;;5037337;28;20043;-79
2023/02/10 06:55:14;;;;;;;43.90;19.80;;;-5.30;99.90;;;;;;5054357;28;20452;-79
2023/02/10 06:57:40;;;;;;;40.65;19.63;;;-5.30;99.90;;;;;;5055688;28;20073;-77
2023/02/10 07:00:12;;;;;;;45.17;21.65;;;-5.30;99.90;;;;;;5052438;28;20090;-78
2023/02/10 07:02:38;;;;;;;45.60;22.17;;;-5.20;99.90;;;;;;5048956;28;20056;-80
2023/02/10 07:05:07;;;;;;;56.25;26.27;;;-5.10;99.90;;;;;;5054228;28;20634;-78
2023/02/10 07:07:33;;;;;;;54.40;25.40;;;-5.00;99.90;;;;;;5051094;28;20025;-80
2023/02/10 07:09:59;;;;;;;58.30;25.67;;;-4.80;99.90;;;;;;5049684;28;20118;-80
2023/02/10 07:12:25;;;;;;;52.72;23.10;;;-4.80;99.90;;;;;;5047838;28;20052;-80
2023/02/10 07:14:52;;;;;;;51.45;22.90;;;-4.70;99.90;;;;;;5052315;28;20032;-80
2023/02/10 07:17:18;;;;;;;46.28;21.38;;;-4.60;99.90;;;;;;5046574;28;20026;-78
2023/02/10 07:19:44;;;;;;;45.08;21.88;;;-4.60;99.90;;;;;;5050476;28;20029;-79
2023/02/10 07:22:10;;;;;;;38.53;19.20;;;-4.50;99.90;;;;;;5052774;28;20057;-79
2023/02/10 07:24:36;;;;;;;51.13;21.85;;;-4.40;99.90;;;;;;5054998;28;20060;-78
2023/02/10 07:27:02;;;;;;;46.70;20.83;;;-4.40;99.90;;;;;;5054611;28;20100;-79
2023/02/10 07:29:28;;;;;;;41.28;18.90;;;-4.40;99.90;;;;;;5038015;28;20036;-79
2023/02/10 07:31:54;;;;;;;43.88;20.13;;;-4.30;99.90;;;;;;5054262;28;20086;-79
2023/02/10 07:34:20;;;;;;;40.40;19.50;;;-4.40;99.90;;;;;;5055063;28;20021;-79
2023/02/10 07:36:53;;;;;;;48.40;20.73;;;-4.30;99.90;;;;;;5057105;28;20028;-79
2023/02/10 07:39:23;;;;;;;47.28;22.67;;;-4.20;99.90;;;;;;5056315;28;20056;-79
2023/02/10 07:41:49;;;;;;;49.30;23.33;;;-4.30;99.90;;;;;;5057087;28;20033;-78
2023/02/10 07:44:16;;;;;;;46.08;22.98;;;-4.20;99.90;;;;;;5038561;28;20036;-78
2023/02/10 07:46:42;;;;;;;51.63;26.00;;;-4.20;99.90;;;;;;5057959;28;20033;-78
2023/02/10 07:49:08;;;;;;;51.08;24.25;;;-4.10;99.90;;;;;;5060961;28;20028;-79
2023/02/10 07:51:34;;;;;;;44.50;20.98;;;-4.00;99.90;;;;;;5059538;28;20477;-79
2023/02/10 07:53:59;;;;;;;52.33;22.45;;;-4.00;99.90;;;;;;5057204;28;20119;-78
2023/02/10 07:56:25;;;;;;;47.85;22.38;;;-3.90;99.90;;;;;;5052052;28;20041;-79
2023/02/10 07:58:51;;;;;;;42.25;21.40;;;-3.80;99.90;;;;;;5055426;28;20397;-78
2023/02/10 08:01:17;;;;;;;49.28;22.27;;;-3.80;99.90;;;;;;5056996;28;20021;-78
2023/02/10 08:03:43;;;;;;;51.28;24.00;;;-3.70;99.90;;;;;;5056489;28;20033;-78
2023/02/10 08:06:08;;;;;;;56.00;26.55;;;-3.60;99.90;;;;;;5057744;28;20061;-78
2023/02/10 08:08:34;;;;;;;53.25;25.40;;;-3.50;99.90;;;;;;5058536;28;20136;-77
2023/02/10 08:11:04;;;;;;;50.80;25.35;;;-3.40;99.90;;;;;;5060877;28;20029;-79
2023/02/10 08:13:30;;;;;;;50.45;23.60;;;-3.30;99.90;;;;;;5059577;28;20111;-78
2023/02/10 08:15:55;;;;;;;50.25;23.42;;;-3.30;99.90;;;;;;5056225;28;20029;-80
2023/02/10 08:18:21;;;;;;;46.40;23.58;;;-3.20;99.90;;;;;;5050070;28;20029;-79
2023/02/10 08:20:47;;;;;;;49.72;23.38;;;-3.10;99.90;;;;;;5056107;28;20590;-78
2023/02/10 08:23:17;;;;;;;51.17;25.73;;;-3.00;99.90;;;;;;5042309;28;20574;-79
2023/02/10 08:25:43;;;;;;;55.85;25.63;;;-3.00;99.90;;;;;;5060601;28;20032;-78
2023/02/10 08:28:09;;;;;;;57.38;26.88;;;-2.90;99.90;;;;;;5058029;28;20037;-77
2023/02/10 08:30:36;;;;;;;55.72;26.60;;;-2.90;99.90;;;;;;5059252;28;20057;-78
2023/02/10 08:33:02;;;;;;;56.20;27.88;;;-2.80;99.90;;;;;;5055996;28;20060;-77
2023/02/10 08:35:28;;;;;;;53.42;25.02;;;-2.80;99.90;;;;;;5053706;28;20037;-78
2023/02/10 08:37:54;;;;;;;52.25;24.73;;;-2.70;99.90;;;;;;5059857;28;20029;-78
2023/02/10 08:40:20;;;;;;;44.67;22.88;;;-2.60;99.90;;;;;;5060707;28;20052;-77
2023/02/10 08:42:46;;;;;;;45.08;21.70;;;-2.50;99.90;;;;;;5060188;28;20233;-77
2023/02/10 08:45:12;;;;;;;44.65;21.48;;;-2.40;99.90;;;;;;5056065;28;20029;-78
2023/02/10 08:47:37;;;;;;;45.50;22.25;;;-2.40;99.90;;;;;;5056640;28;20063;-78
2023/02/10 08:50:03;;;;;;;46.10;22.23;;;-2.30;99.90;;;;;;5048564;28;20116;-78
2023/02/10 08:52:29;;;;;;;36.05;19.45;;;-2.20;99.90;;;;;;5053835;28;20035;-77
2023/02/10 08:54:56;;;;;;;35.08;17.92;;;-2.10;99.90;;;;;;5054409;28;20049;-78
2023/02/10 08:57:22;;;;;;;34.10;16.52;;;-2.10;99.90;;;;;;5056501;28;20033;-78
2023/02/10 08:59:48;;;;;;;36.55;17.02;;;-2.00;99.90;;;;;;5051075;28;20024;-77
2023/02/10 09:02:14;;;;;;;40.75;19.20;;;-2.00;99.90;;;;;;5041454;28;20081;-79
2023/02/10 09:04:41;;;;;;;36.38;19.45;;;-2.00;99.90;;;;;;5051789;28;20454;-79
2023/02/10 09:07:07;;;;;;;41.42;20.42;;;-2.00;99.90;;;;;;5055903;28;20025;-78
2023/02/10 09:09:38;;;;;;;38.20;18.10;;;-2.00;99.90;;;;;;5052597;28;20187;-79
2023/02/10 09:12:04;;;;;;;35.20;18.08;;;-1.90;99.90;;;;;;5055387;28;20484;-78
2023/02/10 09:14:30;;;;;;;36.85;18.40;;;-1.90;99.90;;;;;;5084224;28;20025;-77
2023/02/10 09:16:56;;;;;;;34.63;17.40;;;-1.80;99.90;;;;;;5051684;28;20029;-79
2023/02/10 09:19:23;;;;;;;39.95;19.38;;;-1.80;99.90;;;;;;5052243;28;20465;-79
2023/02/10 09:21:49;;;;;;;38.40;18.25;;;-1.80;99.90;;;;;;5046912;28;20654;-79
2023/02/10 09:24:16;;;;;;;38.40;19.45;;;-1.70;99.90;;;;;;5046941;28;20068;-79
2023/02/10 09:26:42;;;;;;;48.05;23.50;;;-1.60;99.90;;;;;;5046035;28;20056;-80
2023/02/10 09:29:08;;;;;;;47.83;23.25;;;-1.60;99.90;;;;;;5048454;28;20044;-80
2023/02/10 09:31:35;;;;;;;49.55;23.02;;;-1.50;99.90;;;;;;5043893;28;20033;-79
2023/02/10 09:34:00;;;;;;;45.30;22.48;;;-1.50;99.90;;;;;;5039330;28;20489;-80
2023/02/10 09:36:26;;;;;;;51.35;24.13;;;-1.40;99.90;;;;;;5045207;28;20051;-79
2023/02/10 09:38:54;;;;;;;44.83;22.35;;;-1.30;99.90;;;;;;5046980;28;20040;-79
2023/02/10 09:41:44;;;;;;;46.20;23.27;;;-1.20;99.90;;;;;;5047538;28;20327;-80
2023/02/10 09:44:20;;;;;;;50.85;24.50;;;-1.10;99.90;;;;;;5041745;28;20028;-79
2023/02/10 09:46:58;;;;;;;46.90;23.23;;;-1.10;99.90;;;;;;5058132;28;20040;-79
2023/02/10 09:49:47;;;;;;;41.65;21.02;;;-1.00;99.90;;;;;;5046114;28;20044;-79
2023/02/10 09:52:38;;;;;;;42.60;22.23;;;-0.90;99.90;;;;;;5045548;28;20040;-78
2023/02/10 09:55:19;;;;;;;48.47;24.02;;;-0.90;99.90;;;;;;5032820;28;20116;-78
2023/02/10 09:57:53;;;;;;;51.40;24.13;;;-0.80;99.90;;;;;;5050078;28;20111;-80
2023/02/10 10:00:22;;;;;;;46.78;23.60;;;-0.80;99.90;;;;;;5049621;28;20393;-78
2023/02/10 10:02:54;;;;;;;49.88;24.95;;;-0.70;99.90;;;;;;5049546;28;20112;-79
2023/02/10 10:05:30;;;;;;;47.80;24.80;;;-0.60;99.90;;;;;;5033472;28;20029;-79
2023/02/10 10:07:58;;;;;;;50.50;25.45;;;-0.60;99.90;;;;;;5041534;28;20030;-78
2023/02/10 10:10:40;;;;;;;51.75;25.42;;;-0.50;99.90;;;;;;5048529;28;20029;-79
2023/02/10 10:13:21;;;;;;;50.60;24.25;;;-0.50;99.90;;;;;;5050694;28;20037;-79
2023/02/10 10:15:58;;;;;;;52.85;24.92;;;-0.40;99.90;;;;;;5049230;28;20056;-78
2023/02/10 10:18:48;;;;;;;48.00;23.95;;;-0.30;99.90;;;;;;5050857;28;20025;-79
2023/02/10 10:21:30;;;;;;;52.55;23.58;;;-0.20;99.90;;;;;;5046197;28;20075;-78
2023/02/10 10:24:16;;;;;;;53.50;26.35;;;-0.20;99.90;;;;;;5048572;28;20047;-78
2023/02/10 10:27:02;;;;;;;49.78;24.50;;;-0.10;99.90;;;;;;5050314;28;20041;-78
2023/02/10 10:29:28;;;;;;;;;;;0.00;99.90;;;;;;5049985;28;20033;-78
2023/02/10 10:32:15;;;;;;;53.55;24.67;;;0.10;99.90;;;;;;5044248;28;19932;-80
2023/02/10 10:34:51;;;;;;;49.33;24.17;;;0.10;99.90;;;;;;5047002;28;20041;-78
2023/02/10 10:37:20;;;;;;;47.97;24.38;;;0.10;99.90;;;;;;5049177;28;20037;-77
2023/02/10 10:39:53;;;;;;;52.13;24.98;;;0.20;99.90;;;;;;5046792;28;20025;-78
2023/02/10 10:42:45;;;;;;;49.55;23.58;;;0.20;99.90;;;;;;5048194;28;20025;-77
2023/02/10 10:45:26;;;;;;;52.63;25.80;;;0.20;99.90;;;;;;5040160;28;20032;-77
2023/02/10 10:48:15;;;;;;;49.80;24.20;;;0.20;99.90;;;;;;5043009;28;20115;-79
2023/02/10 10:50:41;;;;;;;49.78;24.20;;;0.20;99.90;;;;;;5045320;28;20029;-77
2023/02/10 10:53:19;;;;;;;50.00;25.77;;;0.30;99.90;;;;;;5040689;28;20044;-75
2023/02/10 10:55:51;;;;;;;46.90;24.38;;;0.30;99.90;;;;;;5027555;28;20033;-77
2023/02/10 10:58:25;;;;;;;48.17;24.55;;;0.30;99.90;;;;;;5043267;28;20114;-79
2023/02/10 11:00:53;;;;;;;47.35;25.45;;;0.40;99.90;;;;;;5042452;28;20021;-77
2023/02/10 11:03:19;;;;;;;48.17;24.38;;;0.50;99.90;;;;;;5042024;28;20033;-79
2023/02/10 11:05:59;;;;;;;42.75;22.92;;;0.40;99.90;;;;;;5042687;28;20040;-78
2023/02/10 11:08:34;;;;;;;53.00;25.27;;;0.50;99.90;;;;;;5043907;28;20037;-78
2023/02/10 11:11:03;;;;;;;45.90;23.17;;;0.60;99.90;;;;;;5026116;28;20032;-78
2023/02/10 11:13:32;;;;;;;48.75;25.30;;;0.50;99.90;;;;;;5040092;28;20051;-79
2023/02/10 11:16:15;;;;;;;51.03;25.48;;;0.60;99.90;;;;;;5043222;28;20038;-78
2023/02/10 11:18:53;;;;;;;47.67;24.98;;;0.60;99.90;;;;;;5043210;28;20090;-78
2023/02/10 11:21:19;;;;;;;50.35;25.50;;;0.60;99.90;;;;;;5045860;28;20028;-78
2023/02/10 11:23:50;;;;;;;49.90;24.65;;;0.70;99.90;;;;;;5044205;28;20027;-78
2023/02/10 11:26:25;;;;;;;50.30;25.52;;;0.60;99.90;;;;;;5045478;28;20044;-78
2023/02/10 11:28:52;;;;;;;47.47;24.52;;;0.60;99.90;;;;;;5043408;28;20118;-78
2023/02/10 11:31:32;;;;;;;48.92;24.45;;;0.60;99.90;;;;;;5045156;28;20135;-76
2023/02/10 11:34:02;;;;;;;47.38;24.33;;;0.60;99.90;;;;;;5045315;28;20036;-77
2023/02/10 11:36:37;;;;;;;48.75;25.15;;;0.70;99.90;;;;;;5045539;28;20026;-79
2023/02/10 11:39:07;;;;;;;48.58;23.63;;;0.70;99.90;;;;;;5047295;28;20032;-78
2023/02/10 11:41:33;;;;;;;46.60;23.70;;;0.80;99.90;;;;;;5036764;28;20033;-78
2023/02/10 11:44:01;;;;;;;47.60;23.90;;;0.80;99.90;;;;;;5044295;28;20032;-78
2023/02/10 11:46:30;;;;;;;49.17;24.83;;;0.90;99.90;;;;;;5042460;28;20474;-78
2023/02/10 11:48:59;;;;;;;47.88;24.60;;;1.00;99.90;;;;;;5042329;28;20048;-78
2023/02/10 11:51:25;;;;;;;46.97;25.25;;;1.00;99.90;;;;;;5037748;28;20025;-77
2023/02/10 11:53:52;;;;;;;51.85;25.65;;;1.00;99.90;;;;;;5049877;28;20032;-77
2023/02/10 11:56:21;;;;;;;48.78;24.70;;;1.10;99.90;;;;;;5050968;28;20032;-77
2023/02/10 11:59:13;;;;;;;52.63;26.33;;;1.00;99.90;;;;;;5048806;28;20028;-77
2023/02/10 12:01:39;;;;;;;53.85;26.08;;;1.00;99.90;;;;;;5055735;28;20029;-76
2023/02/10 12:04:33;;;;;;;56.60;27.52;;;0.90;99.90;;;;;;5037074;28;20039;-76
2023/02/10 12:07:10;;;;;;;55.58;26.98;;;0.80;99.90;;;;;;5051568;28;20059;-78
2023/02/10 12:09:54;;;;;;;50.17;25.73;;;0.80;99.90;;;;;;5047864;28;20025;-77
2023/02/10 12:12:44;;;;;;;51.40;25.80;;;0.70;99.90;;;;;;5052683;28;20158;-77
2023/02/10 12:15:29;;;;;;;55.47;27.35;;;0.70;99.90;;;;;;5040267;28;20071;-77
2023/02/10 12:18:12;;;;;;;57.35;27.40;;;0.60;99.90;;;;;;5047276;28;20766;-77
2023/02/10 12:21:08;;;;;;;52.75;26.70;;;0.70;99.90;;;;;;5043958;28;20041;-77
2023/02/10 12:23:43;;;;;;;53.13;27.17;;;0.70;99.90;;;;;;5043348;28;20035;-77
2023/02/10 12:26:27;;;;;;;55.85;27.25;;;0.70;99.90;;;;;;5047734;28;20045;-78
2023/02/10 12:29:15;;;;;;;52.38;25.45;;;0.80;99.90;;;;;;5047599;28;20661;-77
2023/02/10 12:31:43;;;;;;;52.70;25.75;;;0.80;99.90;;;;;;5046789;28;20549;-77
2023/02/10 12:34:15;;;;;;;51.20;25.40;;;0.80;99.90;;;;;;5040697;28;20506;-78
2023/02/10 12:36:40;;;;;;;52.67;25.33;;;0.80;99.90;;;;;;5049288;28;20489;-78
2023/02/10 12:39:09;;;;;;;51.75;25.80;;;0.80;99.90;;;;;;5047002;28;20036;-78